createdAt,value
2023-06-07T00:01:07.615Z,2.73
2023-06-07T00:03:35.961Z,3.20
2023-06-07T00:06:04.328Z,3.17
2023-06-07T00:08:32.202Z,3.07
2023-06-07T00:11:00.415Z,3.00
2023-06-07T00:13:28.294Z,2.70
2023-06-07T00:15:57.489Z,3.20
2023-06-07T00:18:25.874Z,3.30
2023-06-07T00:20:53.769Z,3.20
2023-06-07T00:23:22.855Z,2.80
2023-06-07T00:25:50.892Z,3.40
2023-06-07T00:28:18.812Z,2.93
2023-06-07T00:30:46.685Z,3.27
2023-06-07T00:33:16.056Z,4.00
2023-06-07T00:35:44.045Z,2.87
2023-06-07T00:38:11.949Z,3.90
2023-06-07T00:40:39.768Z,3.37
2023-06-07T00:43:07.663Z,3.70
2023-06-07T00:45:35.580Z,3.50
2023-06-07T00:48:03.924Z,3.43
2023-06-07T00:50:33.255Z,3.50
2023-06-07T00:53:01.401Z,3.80
2023-06-07T00:55:29.400Z,3.10
2023-06-07T00:57:58.062Z,3.20
2023-06-07T01:00:26.728Z,3.27
2023-06-07T01:02:56.658Z,3.13
2023-06-07T01:05:24.730Z,2.60
2023-06-07T01:07:55.727Z,3.50
2023-06-07T01:10:23.771Z,3.53
2023-06-07T01:12:55.856Z,3.20
2023-06-07T01:15:25.391Z,3.10
2023-06-07T01:17:54.820Z,3.20
2023-06-07T01:20:24.984Z,2.60
2023-06-07T01:22:57.971Z,3.27
2023-06-07T01:25:27.754Z,2.50
2023-06-07T01:27:58.010Z,3.47
2023-06-07T01:30:26.888Z,3.10
2023-06-07T01:32:55.143Z,3.07
2023-06-07T01:35:23.658Z,3.43
2023-06-07T01:37:53.046Z,2.73
2023-06-07T01:40:22.355Z,3.67
2023-06-07T01:42:52.676Z,3.07
2023-06-07T01:45:21.072Z,3.37
2023-06-07T01:47:49.237Z,2.90
2023-06-07T01:50:22.826Z,3.67
2023-06-07T01:52:50.870Z,3.10
2023-06-07T01:55:19.326Z,3.20
2023-06-07T01:57:59.211Z,3.60
2023-06-07T02:00:31.465Z,3.30
2023-06-07T02:03:03.549Z,3.20
2023-06-07T02:05:35.631Z,3.50
2023-06-07T02:08:09.502Z,2.70
2023-06-07T02:10:40.759Z,2.67
2023-06-07T02:13:10.928Z,2.77
2023-06-07T02:15:38.948Z,3.27
2023-06-07T02:18:07.086Z,2.87
2023-06-07T02:20:35.896Z,2.50
2023-06-07T02:23:04.008Z,2.80
2023-06-07T02:25:32.413Z,3.00
2023-06-07T02:28:01.095Z,3.20
2023-06-07T02:30:30.342Z,3.50
2023-06-07T02:32:58.212Z,3.17
2023-06-07T02:35:26.168Z,3.43
2023-06-07T02:37:54.174Z,3.10
2023-06-07T02:40:21.971Z,3.30
2023-06-07T02:42:50.489Z,3.07
2023-06-07T02:45:18.345Z,2.80
2023-06-07T02:47:47.663Z,3.00
2023-06-07T02:50:15.630Z,3.30
2023-06-07T02:52:45.397Z,2.80
2023-06-07T02:55:13.254Z,3.17
2023-06-07T02:57:41.767Z,3.90
2023-06-07T03:00:13.038Z,3.37
2023-06-07T03:02:41.306Z,3.27
2023-06-07T03:05:11.138Z,3.17
2023-06-07T03:07:41.511Z,3.43
2023-06-07T03:10:10.406Z,3.30
2023-06-07T03:12:38.249Z,3.17
2023-06-07T03:15:08.903Z,3.93
2023-06-07T03:17:36.991Z,3.63
2023-06-07T03:20:07.553Z,3.23
2023-06-07T03:22:37.782Z,2.63
2023-06-07T03:25:07.769Z,2.57
2023-06-07T03:27:36.052Z,3.00
2023-06-07T03:30:06.426Z,3.60
2023-06-07T03:32:34.688Z,3.17
2023-06-07T03:35:02.549Z,2.90
2023-06-07T03:37:30.386Z,3.07
2023-06-07T03:39:59.536Z,3.33
2023-06-07T03:42:27.431Z,3.07
2023-06-07T03:44:55.240Z,3.77
2023-06-07T03:47:23.401Z,3.23
2023-06-07T03:49:51.366Z,3.73
2023-06-07T03:52:19.286Z,3.57
2023-06-07T03:54:47.181Z,3.27
2023-06-07T03:57:16.353Z,3.30
2023-06-07T03:59:44.287Z,3.70
2023-06-07T04:02:12.114Z,3.40
2023-06-07T04:04:43.706Z,2.70
2023-06-07T04:07:11.586Z,3.23
2023-06-07T04:09:41.027Z,2.93
2023-06-07T04:12:09.646Z,3.20
2023-06-07T04:14:38.873Z,3.50
2023-06-07T04:17:07.532Z,2.77
2023-06-07T04:19:35.359Z,3.80
2023-06-07T04:22:05.656Z,2.70
2023-06-07T04:24:33.568Z,3.00
2023-06-07T04:27:02.349Z,3.30
2023-06-07T04:29:31.539Z,3.07
2023-06-07T04:32:02.854Z,3.17
2023-06-07T04:34:33.075Z,3.63
2023-06-07T04:37:04.899Z,4.40
2023-06-07T04:39:33.985Z,2.70
2023-06-07T04:42:04.383Z,3.37
2023-06-07T04:44:32.332Z,5.10
2023-06-07T04:47:08.154Z,3.57
2023-06-07T04:49:39.678Z,3.43
2023-06-07T04:52:08.523Z,3.90
2023-06-07T04:54:37.484Z,3.63
2023-06-07T04:57:07.787Z,3.60
2023-06-07T04:59:42.831Z,4.40
2023-06-07T05:02:12.186Z,4.47
2023-06-07T05:04:40.382Z,4.20
2023-06-07T05:07:08.348Z,4.10
2023-06-07T05:09:36.478Z,4.53
2023-06-07T05:12:05.036Z,4.50
2023-06-07T05:14:33.186Z,4.77
2023-06-07T05:17:01.158Z,4.20
2023-06-07T05:19:31.009Z,4.77
2023-06-07T05:21:58.939Z,4.70
2023-06-07T05:24:27.128Z,4.90
2023-06-07T05:26:55.057Z,4.93
2023-06-07T05:29:22.883Z,5.27
2023-06-07T05:31:50.775Z,5.30
2023-06-07T05:34:18.671Z,4.43
2023-06-07T05:36:48.859Z,4.80
2023-06-07T05:39:16.833Z,4.70
2023-06-07T05:41:44.850Z,4.63
2023-06-07T05:44:12.749Z,5.43
2023-06-07T05:46:41.137Z,5.90
2023-06-07T05:49:09.037Z,5.17
2023-06-07T05:51:37.674Z,5.50
2023-06-07T05:54:07.886Z,5.30
2023-06-07T05:56:35.936Z,5.60
2023-06-07T05:59:03.835Z,5.40
2023-06-07T06:01:32.013Z,5.80
2023-06-07T06:03:59.861Z,5.27
2023-06-07T06:06:27.705Z,5.77
2023-06-07T06:08:55.628Z,5.90
2023-06-07T06:11:24.958Z,5.67
2023-06-07T06:13:53.038Z,6.20
2023-06-07T06:16:20.896Z,5.83
2023-06-07T06:18:48.731Z,5.70
2023-06-07T06:21:16.901Z,5.90
2023-06-07T06:23:44.854Z,5.97
2023-06-07T06:26:12.777Z,5.90
2023-06-07T06:28:42.209Z,6.10
2023-06-07T06:31:10.221Z,5.67
2023-06-07T06:33:38.093Z,6.23
2023-06-07T06:36:06.408Z,6.67
2023-06-07T06:38:34.267Z,5.63
2023-06-07T06:41:02.240Z,4.77
2023-06-07T06:43:30.165Z,5.60
2023-06-07T06:45:59.388Z,5.73
2023-06-07T06:48:27.324Z,6.10
2023-06-07T06:50:55.296Z,5.10
2023-06-07T06:53:23.215Z,5.83
2023-06-07T06:55:51.166Z,5.93
2023-06-07T06:58:20.406Z,6.13
2023-06-07T07:00:48.290Z,5.20
2023-06-07T07:03:17.483Z,5.30
2023-06-07T07:05:45.390Z,5.30
2023-06-07T07:08:13.371Z,5.50
2023-06-07T07:10:41.311Z,5.00
2023-06-07T07:13:09.172Z,4.90
2023-06-07T07:15:37.300Z,5.83
2023-06-07T07:18:06.118Z,5.43
2023-06-07T07:20:36.203Z,5.67
2023-06-07T07:23:04.299Z,5.73
2023-06-07T07:25:32.319Z,5.10
2023-06-07T07:28:00.204Z,5.90
2023-06-07T07:30:28.099Z,6.17
2023-06-07T07:32:56.367Z,6.10
2023-06-07T07:35:24.591Z,5.20
2023-06-07T07:37:54.788Z,5.13
2023-06-07T07:40:22.820Z,5.80
2023-06-07T07:42:51.051Z,5.00
2023-06-07T07:45:19.045Z,5.13
2023-06-07T07:47:47.066Z,6.33
2023-06-07T07:50:17.496Z,5.43
2023-06-07T07:52:45.348Z,5.87
2023-06-07T07:55:14.546Z,6.50
2023-06-07T07:57:43.846Z,6.20
2023-06-07T08:00:14.685Z,5.90
2023-06-07T08:02:42.797Z,5.67
2023-06-07T08:05:11.457Z,5.60
2023-06-07T08:07:39.348Z,5.20
2023-06-07T08:10:09.252Z,6.23
2023-06-07T08:12:38.434Z,4.80
2023-06-07T08:15:07.123Z,5.00
2023-06-07T08:17:34.965Z,5.00
2023-06-07T08:20:05.902Z,5.50
2023-06-07T08:22:34.160Z,4.43
2023-06-07T08:25:01.983Z,4.50
2023-06-07T08:27:29.783Z,3.90
2023-06-07T08:29:59.038Z,4.30
2023-06-07T08:32:26.927Z,3.07
2023-06-07T08:34:56.623Z,4.03
2023-06-07T08:37:24.615Z,4.00
2023-06-07T08:39:52.468Z,4.07
2023-06-07T08:42:20.332Z,3.83
2023-06-07T08:44:48.382Z,3.40
2023-06-07T08:47:18.693Z,3.20
2023-06-07T08:49:46.971Z,3.03
2023-06-07T08:52:17.160Z,3.70
2023-06-07T08:54:47.762Z,3.83
2023-06-07T08:57:17.636Z,3.30
2023-06-07T08:59:46.252Z,3.50
2023-06-07T09:02:14.739Z,3.73
2023-06-07T09:04:44.766Z,4.10
2023-06-07T09:07:12.822Z,3.67
2023-06-07T09:09:42.752Z,4.10
2023-06-07T09:12:11.846Z,3.77
2023-06-07T09:14:39.708Z,3.10
2023-06-07T09:17:07.699Z,3.33
2023-06-07T09:19:37.837Z,3.80
2023-06-07T09:22:08.929Z,3.40
2023-06-07T09:24:38.763Z,3.33
2023-06-07T09:27:07.431Z,3.40
2023-06-07T09:29:40.788Z,3.70
2023-06-07T09:32:22.158Z,3.40
2023-06-07T09:34:53.298Z,3.37
2023-06-07T09:37:23.106Z,3.20
2023-06-07T09:39:53.333Z,2.80
2023-06-07T09:42:21.910Z,3.30
2023-06-07T09:44:51.888Z,3.30
2023-06-07T09:47:24.289Z,2.90
2023-06-07T09:50:01.562Z,3.47
2023-06-07T09:52:31.103Z,3.17
2023-06-07T09:54:58.972Z,3.30
2023-06-07T09:57:31.328Z,2.93
2023-06-07T10:00:01.438Z,2.60
2023-06-07T10:02:30.551Z,3.10
2023-06-07T10:04:59.878Z,3.10
2023-06-07T10:07:33.076Z,3.23
2023-06-07T10:10:02.365Z,3.30
2023-06-07T10:12:32.825Z,3.13
2023-06-07T10:15:04.695Z,3.30
2023-06-07T10:17:42.873Z,3.30
2023-06-07T10:20:17.529Z,3.03
2023-06-07T10:22:47.831Z,2.53
2023-06-07T10:25:18.602Z,3.17
2023-06-07T10:28:10.033Z,3.03
2023-06-07T10:30:44.552Z,2.90
2023-06-07T10:33:13.286Z,2.83
2023-06-07T10:35:42.680Z,2.67
2023-06-07T10:38:12.380Z,2.93
2023-06-07T10:40:40.778Z,3.70
2023-06-07T10:43:08.817Z,2.70
2023-06-07T10:45:36.690Z,2.70
2023-06-07T10:48:33.640Z,2.70
2023-06-07T10:51:01.451Z,2.83
2023-06-07T10:53:50.543Z,3.00
2023-06-07T10:56:32.524Z,3.27
2023-06-07T10:59:24.281Z,2.80
2023-06-07T11:01:55.319Z,3.27
2023-06-07T11:04:52.355Z,2.70
2023-06-07T11:07:22.033Z,3.50
2023-06-07T11:10:12.019Z,2.67
2023-06-07T11:12:59.189Z,2.67
2023-06-07T11:15:31.822Z,3.10
2023-06-07T11:18:01.109Z,2.90
2023-06-07T11:20:52.522Z,2.70
2023-06-07T11:23:28.430Z,2.50
2023-06-07T11:26:01.471Z,2.73
2023-06-07T11:28:32.988Z,2.33
2023-06-07T11:31:01.651Z,2.30
2023-06-07T11:33:31.996Z,2.27
2023-06-07T11:35:59.967Z,3.10
2023-06-07T11:38:30.627Z,2.93
2023-06-07T11:40:59.870Z,2.90
2023-06-07T11:43:29.146Z,2.17
2023-06-07T11:45:58.263Z,2.50
2023-06-07T11:48:28.846Z,2.87
2023-06-07T11:50:57.276Z,2.60
2023-06-07T11:53:29.599Z,2.50
2023-06-07T11:55:59.074Z,2.73
2023-06-07T11:58:27.249Z,2.33
2023-06-07T12:00:55.256Z,3.07
2023-06-07T12:03:24.071Z,3.40
2023-06-07T12:05:54.219Z,2.93
2023-06-07T12:08:23.401Z,2.30
2023-06-07T12:10:54.939Z,2.97
2023-06-07T12:13:25.340Z,2.60
2023-06-07T12:15:56.571Z,2.80
2023-06-07T12:18:27.953Z,2.50
2023-06-07T12:21:04.058Z,2.87
2023-06-07T12:23:32.354Z,2.53
2023-06-07T12:26:11.369Z,3.03
2023-06-07T12:28:43.178Z,2.80
2023-06-07T12:31:18.997Z,2.73
2023-06-07T12:33:57.263Z,2.17
2023-06-07T12:36:28.252Z,2.77
2023-06-07T12:39:01.353Z,2.90
2023-06-07T12:41:29.605Z,2.50
2023-06-07T12:44:00.273Z,2.63
2023-06-07T12:46:28.161Z,2.90
2023-06-07T12:48:56.116Z,2.67
2023-06-07T12:51:24.040Z,2.63
2023-06-07T12:53:51.985Z,2.50
2023-06-07T12:56:19.829Z,2.60
2023-06-07T12:58:47.700Z,2.33
2023-06-07T13:01:17.361Z,2.50
2023-06-07T13:03:46.228Z,2.53
2023-06-07T13:06:14.138Z,2.70
2023-06-07T13:08:44.629Z,2.30
2023-06-07T13:11:12.807Z,2.53
2023-06-07T13:13:41.248Z,3.10
2023-06-07T13:16:09.829Z,2.87
2023-06-07T13:18:40.574Z,2.37
2023-06-07T13:21:08.957Z,2.77
2023-06-07T13:23:36.864Z,3.30
2023-06-07T13:26:04.863Z,2.47
2023-06-07T13:28:32.923Z,2.60
2023-06-07T13:31:00.730Z,2.87
2023-06-07T13:33:28.596Z,2.50
2023-06-07T13:35:57.796Z,2.80
2023-06-07T13:38:25.595Z,2.53
2023-06-07T13:40:53.512Z,2.30
2023-06-07T13:43:27.685Z,2.87
2023-06-07T13:45:59.546Z,2.40
2023-06-07T13:48:27.427Z,2.60
2023-06-07T13:50:56.752Z,2.63
2023-06-07T13:53:25.309Z,2.90
2023-06-07T13:55:53.191Z,2.43
2023-06-07T13:58:21.847Z,2.20
2023-06-07T14:00:49.747Z,3.03
2023-06-07T14:03:17.789Z,2.50
2023-06-07T14:05:45.782Z,2.77
2023-06-07T14:08:15.364Z,2.57
2023-06-07T14:10:43.273Z,2.60
2023-06-07T14:13:11.498Z,2.93
2023-06-07T14:15:39.317Z,2.60
2023-06-07T14:18:07.259Z,2.97
2023-06-07T14:20:35.194Z,3.00
2023-06-07T14:23:03.049Z,2.77
2023-06-07T14:25:32.578Z,2.40
2023-06-07T14:28:00.595Z,2.77
2023-06-07T14:30:28.472Z,2.53
2023-06-07T14:32:56.673Z,2.70
2023-06-07T14:35:24.622Z,2.73
2023-06-07T14:37:52.512Z,3.20
2023-06-07T14:40:20.822Z,3.23
2023-06-07T14:42:50.041Z,3.10
2023-06-07T14:45:17.931Z,2.63
2023-06-07T14:47:46.024Z,2.50
2023-06-07T14:50:14.001Z,2.57
2023-06-07T14:52:41.894Z,2.40
2023-06-07T14:55:11.121Z,2.83
2023-06-07T14:57:39.266Z,2.57
2023-06-07T15:00:10.713Z,3.40
2023-06-07T15:02:38.672Z,2.60
2023-06-07T15:05:08.847Z,2.47
2023-06-07T15:07:37.002Z,2.30
2023-06-07T15:10:06.096Z,2.30
2023-06-07T15:12:34.296Z,2.77
2023-06-07T15:15:02.497Z,2.80
2023-06-07T15:17:31.695Z,3.20
2023-06-07T15:19:59.618Z,2.70
2023-06-07T15:22:27.614Z,2.70
2023-06-07T15:24:55.513Z,2.33
2023-06-07T15:27:23.359Z,3.60
2023-06-07T15:29:51.204Z,2.97
2023-06-07T15:32:19.020Z,2.60
2023-06-07T15:34:48.170Z,2.93
2023-06-07T15:37:16.038Z,3.17
2023-06-07T15:39:46.390Z,2.73
2023-06-07T15:42:14.861Z,3.60
2023-06-07T15:44:43.421Z,3.03
2023-06-07T15:47:11.641Z,3.20
2023-06-07T15:49:39.562Z,3.00
2023-06-07T15:52:09.013Z,2.90
2023-06-07T15:54:36.847Z,3.17
2023-06-07T15:57:06.828Z,2.87
2023-06-07T15:59:36.177Z,2.93
2023-06-07T16:02:04.274Z,3.30
2023-06-07T16:04:32.923Z,3.20
2023-06-07T16:07:01.890Z,2.77
2023-06-07T16:09:31.092Z,3.10
2023-06-07T16:11:58.900Z,3.13
2023-06-07T16:14:26.874Z,3.10
2023-06-07T16:16:54.980Z,3.17
2023-06-07T16:19:22.866Z,3.13
2023-06-07T16:21:50.915Z,3.10
2023-06-07T16:24:18.906Z,3.70
2023-06-07T16:26:48.092Z,2.90
2023-06-07T16:29:15.954Z,3.30
2023-06-07T16:31:43.901Z,3.70
2023-06-07T16:34:11.827Z,3.97
2023-06-07T16:36:39.821Z,3.40
2023-06-07T16:39:08.982Z,2.97
2023-06-07T16:41:41.313Z,2.93
2023-06-07T16:44:11.171Z,2.80
2023-06-07T16:46:39.799Z,3.30
2023-06-07T16:49:08.007Z,3.57
2023-06-07T16:51:36.009Z,3.30
2023-06-07T16:54:03.870Z,2.80
2023-06-07T16:56:31.704Z,3.30
2023-06-07T16:58:59.572Z,3.63
2023-06-07T17:01:30.542Z,3.47
2023-06-07T17:03:58.556Z,2.90
2023-06-07T17:06:26.563Z,3.00
2023-06-07T17:08:54.480Z,3.10
2023-06-07T17:11:22.331Z,3.27
2023-06-07T17:13:50.455Z,3.63
2023-06-07T17:16:18.456Z,3.43
2023-06-07T17:18:48.140Z,4.00
2023-06-07T17:21:16.012Z,3.33
2023-06-07T17:23:43.878Z,3.33
2023-06-07T17:26:11.792Z,3.70
2023-06-07T17:28:39.707Z,2.87
2023-06-07T17:31:07.694Z,3.80
2023-06-07T17:33:35.899Z,2.77
2023-06-07T17:36:05.470Z,3.10
2023-06-07T17:38:33.296Z,3.30
2023-06-07T17:41:01.260Z,3.30
2023-06-07T17:43:30.296Z,3.23
2023-06-07T17:45:58.179Z,3.50
2023-06-07T17:48:26.399Z,3.33
2023-06-07T17:50:55.189Z,3.70
2023-06-07T17:53:24.371Z,3.60
2023-06-07T17:55:52.165Z,3.30
2023-06-07T17:58:20.016Z,2.90
2023-06-07T18:00:47.848Z,3.30
2023-06-07T18:03:20.327Z,2.97
2023-06-07T18:05:48.473Z,3.50
2023-06-07T18:08:16.350Z,3.17
2023-06-07T18:10:45.664Z,3.30
2023-06-07T18:13:13.503Z,3.23
2023-06-07T18:15:41.425Z,3.27
2023-06-07T18:18:09.424Z,3.07
2023-06-07T18:20:37.672Z,3.40
2023-06-07T18:23:05.717Z,3.30
2023-06-07T18:25:33.779Z,3.70
2023-06-07T18:28:03.001Z,3.07
2023-06-07T18:30:31.560Z,3.37
2023-06-07T18:32:59.849Z,3.00
2023-06-07T18:35:27.745Z,3.70
2023-06-07T18:37:55.549Z,3.57
2023-06-07T18:40:23.384Z,3.83
2023-06-07T18:42:51.350Z,3.70
2023-06-07T18:45:20.589Z,3.33
2023-06-07T18:47:48.562Z,2.80
2023-06-07T18:50:17.611Z,3.17
2023-06-07T18:52:45.452Z,3.30
2023-06-07T18:55:13.269Z,3.37
2023-06-07T18:57:41.386Z,3.40
2023-06-07T19:00:10.365Z,3.77
2023-06-07T19:02:40.186Z,3.47
2023-06-07T19:05:09.461Z,3.30
2023-06-07T19:07:37.283Z,3.80
2023-06-07T19:10:05.963Z,3.23
2023-06-07T19:12:33.866Z,3.80
2023-06-07T19:15:01.658Z,3.60
2023-06-07T19:17:29.608Z,4.03
2023-06-07T19:20:00.527Z,3.57
2023-06-07T19:22:28.561Z,3.67
2023-06-07T19:24:56.452Z,3.70
2023-06-07T19:27:24.295Z,3.93
2023-06-07T19:29:52.165Z,3.10
2023-06-07T19:32:20.034Z,3.47
2023-06-07T19:34:49.845Z,3.40
2023-06-07T19:37:20.410Z,3.70
2023-06-07T19:39:48.244Z,3.40
2023-06-07T19:42:19.839Z,4.03
2023-06-07T19:44:47.671Z,3.80
2023-06-07T19:47:15.557Z,3.50
2023-06-07T19:49:43.390Z,3.80
2023-06-07T19:52:11.222Z,3.60
2023-06-07T19:54:40.459Z,3.80
2023-06-07T19:57:09.195Z,3.70
2023-06-07T19:59:38.765Z,3.87
2023-06-07T20:02:07.994Z,3.37
2023-06-07T20:04:36.084Z,3.57
2023-06-07T20:07:07.389Z,3.23
2023-06-07T20:09:36.856Z,3.80
2023-06-07T20:12:07.961Z,3.43
2023-06-07T20:14:36.655Z,4.00
2023-06-07T20:17:04.912Z,3.67
2023-06-07T20:19:32.774Z,3.60
2023-06-07T20:22:00.602Z,3.60
2023-06-07T20:24:45.048Z,4.70
2023-06-07T20:27:14.235Z,4.50
2023-06-07T20:29:42.770Z,4.40
2023-06-07T20:32:11.942Z,4.20
2023-06-07T20:34:39.906Z,4.20
2023-06-07T20:37:07.822Z,3.73
2023-06-07T20:39:36.129Z,4.43
2023-06-07T20:42:04.702Z,4.13
2023-06-07T20:44:43.990Z,4.77
2023-06-07T20:47:19.660Z,4.53
2023-06-07T20:49:47.554Z,4.47
2023-06-07T20:52:15.968Z,4.10
2023-06-07T20:54:43.904Z,3.80
2023-06-07T20:57:11.732Z,4.37
2023-06-07T20:59:45.943Z,4.30
2023-06-07T21:02:13.832Z,4.77
2023-06-07T21:04:41.667Z,4.73
2023-06-07T21:07:09.878Z,4.73
2023-06-07T21:09:37.724Z,4.63
2023-06-07T21:12:07.248Z,4.20
2023-06-07T21:14:35.243Z,4.07
2023-06-07T21:17:04.546Z,4.10
2023-06-07T21:19:32.444Z,4.53
2023-06-07T21:22:00.396Z,4.40
2023-06-07T21:24:28.242Z,3.73
2023-06-07T21:26:56.104Z,4.20
2023-06-07T21:29:23.974Z,4.13
2023-06-07T21:31:51.778Z,4.97
2023-06-07T21:34:20.963Z,3.70
2023-06-07T21:36:48.857Z,5.00
2023-06-07T21:39:16.677Z,4.37
2023-06-07T21:41:44.561Z,4.60
2023-06-07T21:44:12.383Z,4.37
2023-06-07T21:46:40.249Z,4.23
2023-06-07T21:49:08.116Z,4.80
2023-06-07T21:51:40.435Z,4.33
2023-06-07T21:54:08.998Z,4.80
2023-06-07T21:56:36.863Z,4.50
2023-06-07T21:59:04.710Z,3.87
2023-06-07T22:01:32.591Z,4.40
2023-06-07T22:04:00.506Z,3.77
2023-06-07T22:06:28.360Z,4.57
2023-06-07T22:08:57.842Z,4.63
2023-06-07T22:11:25.947Z,3.90
2023-06-07T22:13:53.873Z,4.30
2023-06-07T22:16:21.900Z,4.50
2023-06-07T22:18:50.762Z,3.50
2023-06-07T22:21:18.629Z,4.33
2023-06-07T22:23:46.517Z,5.07
2023-06-07T22:26:16.141Z,5.27
2023-06-07T22:28:44.001Z,4.13
2023-06-07T22:31:11.874Z,4.60
2023-06-07T22:33:39.716Z,4.70
2023-06-07T22:36:08.160Z,3.80
2023-06-07T22:38:36.039Z,4.40
2023-06-07T22:41:03.905Z,4.37
2023-06-07T22:43:33.778Z,4.30
2023-06-07T22:46:01.610Z,4.80
2023-06-07T22:48:29.829Z,4.93
2023-06-07T22:50:58.043Z,4.53
2023-06-07T22:53:25.889Z,4.30
2023-06-07T22:55:53.892Z,5.30
2023-06-07T23:01:05.155Z,6.00
2023-06-07T23:03:33.741Z,4.47
2023-06-07T23:06:02.370Z,5.70
2023-06-07T23:08:30.868Z,5.30
2023-06-07T23:10:58.690Z,5.50
2023-06-07T23:13:27.915Z,5.20
2023-06-07T23:15:56.576Z,4.67
2023-06-07T23:18:31.504Z,4.80
2023-06-07T23:21:02.066Z,5.40
2023-06-07T23:23:30.326Z,4.83
2023-06-07T23:25:58.350Z,5.20
2023-06-07T23:28:26.186Z,5.37
2023-06-07T23:30:54.048Z,5.10
2023-06-07T23:33:21.999Z,5.37
2023-06-07T23:35:51.464Z,5.50
2023-06-07T23:38:19.337Z,5.07
2023-06-07T23:40:47.182Z,4.47
2023-06-07T23:43:15.048Z,4.37
2023-06-07T23:45:42.931Z,5.10
2023-06-07T23:48:11.631Z,4.57
2023-06-07T23:50:39.564Z,5.17
2023-06-07T23:53:09.608Z,5.90
2023-06-07T23:55:37.484Z,5.50
2023-06-07T23:58:05.348Z,4.80
